Terminal Aerodrome Forecast
Issued by NWS

Home | Current Version | Previous Version | Text Only | Print | Product List | Glossary On
Versions: 1 2 3 4 5 6 7 8 9 10 11 12 13 14 15 16 17 18 19 20 21 22 23 24
608
FTUS46 KMFR 210533
TAFOTH
TAF
KOTH 210533Z 2106/2206 17007KT P6SM -SHRA SCT025 OVC080
     FM210700 17010KT 6SM -RA BKN025 OVC040 WS020/19040KT
     FM211200 18022G31KT 4SM RA OVC015
     FM212100 21018G27KT P6SM -SHRA OVC010=

USA.gov is the U.S. government's official web portal to all federal, state and local government web resources and services.